createdAt,value
2023-11-29T00:01:15.544Z,78.46
2023-11-29T00:04:17.910Z,79.55
2023-11-29T00:07:20.269Z,78.36
2023-11-29T00:10:23.646Z,77.49
2023-11-29T00:13:26.074Z,77.21
2023-11-29T00:16:28.413Z,77.31
2023-11-29T00:19:31.075Z,76.77
2023-11-29T00:22:33.429Z,76.21
2023-11-29T00:25:35.736Z,77.19
2023-11-29T00:28:38.103Z,76.66
2023-11-29T00:31:40.539Z,75.83
2023-11-29T00:34:43.331Z,75.93
2023-11-29T00:37:45.710Z,76.06
2023-11-29T00:40:48.088Z,76.15
2023-11-29T00:43:50.486Z,76.96
2023-11-29T00:46:52.907Z,77.38
2023-11-29T00:49:55.340Z,77.27
2023-11-29T00:52:57.746Z,76.32
2023-11-29T00:56:00.148Z,77.21
2023-11-29T00:59:02.533Z,76.44
2023-11-29T01:02:05.406Z,76.19
2023-11-29T01:05:08.303Z,75.96
2023-11-29T01:08:11.419Z,76.73
2023-11-29T01:11:14.417Z,77.82
2023-11-29T01:14:16.805Z,77.12
2023-11-29T01:17:19.209Z,76.85
2023-11-29T01:20:21.776Z,77.30
2023-11-29T01:23:24.142Z,77.28
2023-11-29T01:26:26.620Z,77.56
2023-11-29T01:29:29.025Z,76.64
2023-11-29T01:32:31.546Z,75.82
2023-11-29T01:35:33.989Z,74.14
2023-11-29T01:38:36.562Z,75.11
2023-11-29T01:41:38.971Z,74.96
2023-11-29T01:44:41.321Z,74.70
2023-11-29T01:47:44.296Z,73.92
2023-11-29T01:50:46.845Z,75.02
2023-11-29T01:53:52.823Z,74.78
2023-11-29T01:56:55.446Z,74.72
2023-11-29T01:59:57.892Z,74.64
2023-11-29T02:03:00.374Z,74.05
2023-11-29T02:06:02.935Z,73.25
2023-11-29T02:09:05.313Z,74.59
2023-11-29T02:12:10.797Z,74.53
2023-11-29T02:15:13.158Z,74.86
2023-11-29T02:18:15.587Z,74.19
2023-11-29T02:21:20.193Z,74.59
2023-11-29T02:24:25.558Z,74.15
2023-11-29T02:27:30.186Z,73.78
2023-11-29T02:30:32.594Z,73.62
2023-11-29T02:33:35.462Z,72.82
2023-11-29T02:36:37.873Z,73.79
2023-11-29T02:39:40.514Z,74.18
2023-11-29T02:42:42.868Z,74.61
2023-11-29T02:45:45.448Z,73.93
2023-11-29T02:48:47.932Z,73.41
2023-11-29T02:51:50.957Z,73.40
2023-11-29T02:54:53.334Z,73.59
2023-11-29T02:57:58.270Z,74.62
2023-11-29T03:01:00.890Z,75.45
2023-11-29T03:04:03.401Z,76.42
2023-11-29T03:07:05.809Z,76.53
2023-11-29T03:10:08.212Z,74.85
2023-11-29T03:13:10.837Z,73.96
2023-11-29T03:16:13.334Z,73.56
2023-11-29T03:19:15.711Z,74.03
2023-11-29T03:22:18.070Z,74.53
2023-11-29T03:25:20.463Z,76.05
2023-11-29T03:28:22.841Z,77.22
2023-11-29T03:31:25.189Z,75.70
2023-11-29T03:34:27.613Z,76.00
2023-11-29T03:37:29.990Z,76.45
2023-11-29T03:40:32.349Z,74.82
2023-11-29T03:43:34.711Z,74.18
2023-11-29T03:46:37.108Z,73.80
2023-11-29T03:49:39.561Z,73.22
2023-11-29T03:52:43.719Z,73.00
2023-11-29T03:55:46.590Z,72.96
2023-11-29T03:58:48.954Z,72.69
2023-11-29T04:01:51.436Z,71.99
2023-11-29T04:04:53.897Z,72.56
2023-11-29T04:07:56.250Z,72.59
2023-11-29T04:10:58.627Z,73.50
2023-11-29T04:14:00.982Z,73.17
2023-11-29T04:17:04.245Z,74.12
2023-11-29T04:20:07.236Z,74.03
2023-11-29T04:23:09.607Z,73.16
2023-11-29T04:26:24.549Z,74.03
2023-11-29T04:29:27.035Z,74.80
2023-11-29T04:32:29.946Z,74.83
2023-11-29T04:35:33.158Z,74.51
2023-11-29T04:38:35.665Z,75.57
2023-11-29T04:41:38.047Z,74.78
2023-11-29T04:44:40.407Z,74.02
2023-11-29T04:47:42.900Z,75.00
2023-11-29T04:50:45.264Z,75.69
2023-11-29T04:53:47.726Z,76.10
2023-11-29T04:56:50.200Z,74.58
2023-11-29T04:59:53.480Z,74.72
2023-11-29T05:02:56.970Z,75.28
2023-11-29T05:05:59.411Z,76.85
2023-11-29T05:09:01.810Z,99.91
2023-11-29T05:12:04.747Z,95.38
2023-11-29T05:15:08.043Z,78.66
2023-11-29T05:18:10.569Z,71.74
2023-11-29T05:21:12.984Z,67.09
2023-11-29T05:24:15.297Z,64.67
2023-11-29T05:27:17.725Z,64.23
2023-11-29T05:30:20.120Z,60.99
2023-11-29T05:33:23.042Z,57.51
2023-11-29T05:36:26.334Z,63.79
2023-11-29T05:39:28.699Z,67.41
2023-11-29T05:42:31.054Z,69.07
2023-11-29T05:45:33.441Z,70.86
2023-11-29T05:48:35.806Z,70.81
2023-11-29T05:51:38.379Z,71.94
2023-11-29T05:54:40.742Z,73.16
2023-11-29T05:57:46.313Z,73.51
2023-11-29T06:00:48.849Z,71.18
2023-11-29T06:03:51.268Z,71.33
2023-11-29T06:06:53.696Z,71.46
2023-11-29T06:09:56.103Z,72.13
2023-11-29T06:12:58.434Z,71.64
2023-11-29T06:16:01.123Z,69.65
2023-11-29T06:19:03.527Z,69.39
2023-11-29T06:22:05.966Z,68.56
2023-11-29T06:25:09.374Z,68.73
2023-11-29T06:28:11.918Z,68.92
2023-11-29T06:31:14.321Z,68.13
2023-11-29T06:34:16.890Z,67.79
2023-11-29T06:37:19.352Z,68.24
2023-11-29T06:40:21.779Z,68.92
2023-11-29T06:43:24.488Z,68.30
2023-11-29T06:46:27.069Z,68.48
2023-11-29T06:49:29.510Z,67.96
2023-11-29T06:52:32.578Z,67.63
2023-11-29T06:55:34.946Z,67.49
2023-11-29T06:58:39.194Z,68.30
2023-11-29T07:01:41.681Z,67.38
2023-11-29T07:04:44.890Z,68.17
2023-11-29T07:07:48.626Z,68.31
2023-11-29T07:10:51.594Z,69.34
2023-11-29T07:13:53.976Z,68.38
2023-11-29T07:16:56.350Z,68.53
2023-11-29T07:20:15.809Z,68.23
2023-11-29T07:23:33.632Z,67.78
2023-11-29T07:26:56.516Z,67.64
2023-11-29T07:29:58.974Z,68.02
2023-11-29T07:33:01.610Z,68.79
2023-11-29T07:36:13.459Z,68.50
2023-11-29T07:39:15.777Z,67.97
2023-11-29T07:42:18.198Z,67.32
2023-11-29T07:45:22.868Z,66.96
2023-11-29T07:48:26.225Z,66.37
2023-11-29T07:51:28.678Z,65.88
2023-11-29T07:54:31.641Z,65.71
2023-11-29T07:57:34.967Z,65.18
2023-11-29T08:00:37.298Z,65.17
2023-11-29T08:03:39.709Z,65.45
2023-11-29T08:06:42.564Z,65.21
2023-11-29T08:09:45.717Z,65.20
2023-11-29T08:12:48.134Z,64.99
2023-11-29T08:15:50.547Z,63.81
2023-11-29T08:18:53.867Z,62.94
2023-11-29T08:21:56.329Z,63.08
2023-11-29T08:24:58.724Z,62.81
2023-11-29T08:28:01.134Z,63.44
2023-11-29T08:31:03.678Z,62.48
2023-11-29T08:34:06.079Z,65.33
2023-11-29T08:37:08.405Z,62.32
2023-11-29T08:40:11.189Z,61.88
2023-11-29T08:43:22.184Z,62.62
2023-11-29T08:46:27.043Z,60.89
2023-11-29T08:49:29.461Z,60.32
2023-11-29T08:52:32.622Z,61.25
2023-11-29T08:55:37.132Z,60.99
2023-11-29T08:58:39.501Z,60.04
2023-11-29T09:01:42.053Z,60.44
2023-11-29T09:04:44.428Z,59.03
2023-11-29T09:07:47.064Z,58.09
2023-11-29T09:11:12.433Z,57.95
2023-11-29T09:14:26.446Z,58.45
2023-11-29T09:17:43.707Z,57.62
2023-11-29T09:20:46.734Z,57.54
2023-11-29T09:23:49.243Z,56.99
2023-11-29T09:26:51.674Z,57.08
2023-11-29T09:29:54.109Z,56.18
2023-11-29T09:32:57.329Z,57.31
2023-11-29T09:36:00.191Z,58.21
2023-11-29T09:39:13.204Z,57.06
2023-11-29T09:42:15.630Z,59.90
2023-11-29T09:45:22.561Z,56.00
2023-11-29T09:48:25.172Z,55.44
2023-11-29T09:51:28.275Z,56.07
2023-11-29T09:54:32.457Z,58.34
2023-11-29T09:57:35.106Z,53.55
2023-11-29T10:00:37.556Z,53.19
2023-11-29T10:03:40.055Z,53.95
2023-11-29T10:06:42.667Z,53.39
2023-11-29T10:09:45.079Z,53.71
2023-11-29T10:12:47.428Z,52.54
2023-11-29T10:15:54.389Z,51.40
2023-11-29T10:18:57.408Z,52.61
2023-11-29T10:22:02.868Z,51.79
2023-11-29T10:25:20.222Z,50.95
2023-11-29T10:28:22.593Z,52.07
2023-11-29T10:31:25.082Z,51.57
2023-11-29T10:34:27.564Z,50.45
2023-11-29T10:37:30.005Z,49.82
2023-11-29T10:40:32.361Z,49.63
2023-11-29T10:43:35.746Z,50.16
2023-11-29T10:46:38.259Z,49.24
2023-11-29T10:49:49.645Z,48.46
2023-11-29T10:52:52.076Z,48.10
2023-11-29T10:55:54.437Z,47.86
2023-11-29T10:59:25.425Z,47.77
2023-11-29T11:02:31.375Z,49.37
2023-11-29T11:05:34.306Z,46.45
2023-11-29T11:08:36.960Z,47.34
2023-11-29T11:11:46.704Z,47.10
2023-11-29T11:14:52.316Z,47.74
2023-11-29T11:18:03.811Z,46.51
2023-11-29T11:21:08.491Z,45.52
2023-11-29T11:24:12.186Z,47.17
2023-11-29T11:27:14.672Z,46.17
2023-11-29T11:30:19.482Z,45.91
2023-11-29T11:33:21.953Z,45.99
2023-11-29T11:36:25.080Z,45.34
2023-11-29T11:39:28.822Z,45.80
2023-11-29T11:42:31.458Z,45.04
2023-11-29T11:45:34.879Z,44.51
2023-11-29T11:48:40.516Z,44.43
2023-11-29T11:51:43.004Z,43.92
2023-11-29T11:54:46.296Z,43.90
2023-11-29T11:57:48.730Z,44.35
2023-11-29T12:00:51.116Z,43.75
2023-11-29T12:03:53.550Z,42.81
2023-11-29T12:06:55.946Z,42.95
2023-11-29T12:09:58.410Z,43.09
2023-11-29T12:13:02.252Z,42.52
2023-11-29T12:16:18.277Z,42.92
2023-11-29T12:19:23.443Z,44.21
2023-11-29T12:22:26.425Z,43.36
2023-11-29T12:25:29.492Z,44.12
2023-11-29T12:28:33.939Z,43.29
2023-11-29T12:31:37.776Z,43.90
2023-11-29T12:34:42.297Z,44.33
2023-11-29T12:37:48.328Z,44.12
2023-11-29T12:40:50.971Z,43.68
2023-11-29T12:43:53.752Z,43.77
2023-11-29T12:46:56.114Z,44.59
2023-11-29T12:49:58.924Z,43.61
2023-11-29T12:53:01.353Z,42.53
2023-11-29T12:56:03.913Z,42.13
2023-11-29T12:59:06.799Z,42.30
2023-11-29T13:02:09.379Z,42.05
2023-11-29T13:05:12.328Z,41.76
2023-11-29T13:08:14.706Z,41.90
2023-11-29T13:11:17.140Z,43.02
2023-11-29T13:14:20.837Z,43.35
2023-11-29T13:17:24.078Z,44.05
2023-11-29T13:20:26.569Z,44.26
2023-11-29T13:23:28.971Z,44.94
2023-11-29T13:26:31.488Z,45.44
2023-11-29T13:29:35.219Z,45.47
2023-11-29T13:32:37.910Z,45.02
2023-11-29T13:35:40.740Z,46.85
2023-11-29T13:38:43.208Z,48.14
2023-11-29T13:41:46.254Z,49.34
2023-11-29T13:44:49.363Z,48.70
2023-11-29T13:47:51.932Z,48.21
2023-11-29T13:50:56.754Z,50.68
2023-11-29T13:53:59.227Z,50.78
2023-11-29T13:57:02.921Z,49.76
2023-11-29T14:00:06.348Z,50.00
2023-11-29T14:03:09.963Z,51.01
2023-11-29T14:06:13.164Z,49.95
2023-11-29T14:09:15.677Z,51.23
2023-11-29T14:12:19.075Z,51.88
2023-11-29T14:15:21.564Z,52.49
2023-11-29T14:18:24.241Z,52.55
2023-11-29T14:21:26.742Z,52.95
2023-11-29T14:24:29.083Z,52.71
2023-11-29T14:27:44.600Z,53.22
2023-11-29T14:30:54.102Z,52.93
2023-11-29T14:33:56.754Z,53.78
2023-11-29T14:36:59.178Z,53.80
2023-11-29T14:40:01.557Z,53.14
2023-11-29T14:43:03.912Z,54.19
2023-11-29T14:46:06.389Z,55.54
2023-11-29T14:49:13.833Z,56.44
2023-11-29T14:52:19.260Z,56.48
2023-11-29T14:55:21.753Z,57.14
2023-11-29T14:58:24.446Z,57.93
2023-11-29T15:01:26.866Z,58.36
2023-11-29T15:04:29.368Z,58.85
2023-11-29T15:07:31.741Z,58.50
2023-11-29T15:10:34.112Z,59.67
2023-11-29T15:13:41.563Z,60.23
2023-11-29T15:16:44.554Z,60.93
2023-11-29T15:19:47.030Z,61.48
2023-11-29T15:22:49.390Z,61.96
2023-11-29T15:25:51.802Z,63.72
2023-11-29T15:28:54.170Z,64.48
2023-11-29T15:31:56.881Z,65.33
2023-11-29T15:34:59.252Z,64.99
2023-11-29T15:38:01.775Z,64.63
2023-11-29T15:41:04.236Z,64.02
2023-11-29T15:44:07.100Z,64.22
2023-11-29T15:47:09.669Z,65.81
2023-11-29T15:50:12.660Z,67.01
2023-11-29T15:53:15.157Z,66.67
2023-11-29T15:56:17.541Z,68.58
2023-11-29T15:59:19.942Z,69.85
2023-11-29T16:02:22.427Z,70.80
2023-11-29T16:05:24.834Z,70.46
2023-11-29T16:08:27.513Z,69.71
2023-11-29T16:11:29.922Z,70.55
2023-11-29T16:14:32.298Z,71.04
2023-11-29T16:17:34.868Z,70.63
2023-11-29T16:20:37.983Z,70.60
2023-11-29T16:23:40.689Z,70.44
2023-11-29T16:26:43.552Z,71.22
2023-11-29T16:29:48.419Z,70.84
2023-11-29T16:32:51.060Z,70.96
2023-11-29T16:35:53.491Z,71.65
2023-11-29T16:38:56.009Z,72.38
2023-11-29T16:41:58.694Z,71.84
2023-11-29T16:45:01.141Z,72.11
2023-11-29T16:48:05.634Z,73.49
2023-11-29T16:51:09.992Z,72.59
2023-11-29T16:54:12.433Z,71.62
2023-11-29T16:57:14.844Z,71.68
2023-11-29T17:00:17.825Z,72.16
2023-11-29T17:03:20.266Z,72.53
2023-11-29T17:06:22.794Z,72.83
2023-11-29T17:09:25.398Z,73.91
2023-11-29T17:12:27.849Z,74.43
2023-11-29T17:15:30.232Z,74.37
2023-11-29T17:18:32.685Z,73.72
2023-11-29T17:21:36.037Z,73.56
2023-11-29T17:24:38.486Z,73.26
2023-11-29T17:27:40.887Z,73.51
2023-11-29T17:30:46.234Z,73.70
2023-11-29T17:33:48.800Z,73.67
2023-11-29T17:36:51.219Z,73.21
2023-11-29T17:39:54.339Z,73.17
2023-11-29T17:42:56.735Z,73.37
2023-11-29T17:45:59.093Z,74.19
2023-11-29T17:49:01.493Z,74.34
2023-11-29T17:52:04.249Z,74.63
2023-11-29T17:55:06.881Z,74.87
2023-11-29T17:58:09.696Z,75.90
2023-11-29T18:01:12.052Z,76.61
2023-11-29T18:04:14.596Z,77.33
2023-11-29T18:07:17.082Z,76.48
2023-11-29T18:10:19.453Z,76.55
2023-11-29T18:13:23.855Z,76.42
2023-11-29T18:16:27.577Z,76.70
2023-11-29T18:19:29.986Z,76.27
2023-11-29T18:22:32.449Z,76.26
2023-11-29T18:25:36.301Z,76.29
2023-11-29T18:28:44.371Z,76.56
2023-11-29T18:31:49.877Z,76.89
2023-11-29T18:34:52.263Z,76.90
2023-11-29T18:37:54.657Z,76.54
2023-11-29T18:40:57.042Z,76.83
2023-11-29T18:43:59.783Z,76.28
2023-11-29T18:47:02.121Z,76.65
2023-11-29T18:50:04.781Z,76.93
2023-11-29T18:53:07.327Z,77.09
2023-11-29T18:56:09.945Z,76.90
2023-11-29T18:59:13.740Z,76.94
2023-11-29T19:02:16.532Z,77.23
2023-11-29T19:05:19.058Z,77.56
2023-11-29T19:08:21.462Z,77.70
2023-11-29T19:11:23.858Z,77.72
2023-11-29T19:14:27.032Z,78.04
2023-11-29T19:17:29.785Z,78.20
2023-11-29T19:20:32.227Z,78.04
2023-11-29T19:23:38.389Z,77.27
2023-11-29T19:26:45.598Z,77.71
2023-11-29T19:29:48.003Z,78.11
2023-11-29T19:32:50.738Z,78.34
2023-11-29T19:35:53.168Z,78.90
2023-11-29T19:38:55.612Z,78.66
2023-11-29T19:41:58.024Z,79.28
2023-11-29T19:45:00.589Z,79.40
2023-11-29T19:48:03.836Z,79.76
2023-11-29T19:51:07.834Z,80.23
2023-11-29T19:54:10.221Z,80.27
2023-11-29T19:57:13.138Z,80.42
2023-11-29T20:00:16.105Z,80.74
2023-11-29T20:03:18.602Z,80.94
2023-11-29T20:06:28.317Z,80.89
2023-11-29T20:09:34.376Z,80.60
2023-11-29T20:12:36.819Z,80.15
2023-11-29T20:15:39.253Z,79.83
2023-11-29T20:18:42.809Z,79.96
2023-11-29T20:21:45.362Z,80.01
2023-11-29T20:24:47.774Z,80.56
2023-11-29T20:27:50.123Z,80.33
2023-11-29T20:30:53.381Z,81.07
2023-11-29T20:33:58.688Z,80.82
2023-11-29T20:37:01.208Z,81.08
2023-11-29T20:40:03.709Z,80.56
2023-11-29T20:43:06.094Z,80.70
2023-11-29T20:46:09.199Z,80.23
2023-11-29T20:49:11.675Z,80.09
2023-11-29T20:52:14.064Z,80.08
2023-11-29T20:55:16.475Z,80.21
2023-11-29T20:58:21.616Z,80.24
2023-11-29T21:01:25.224Z,80.02
2023-11-29T21:04:27.688Z,80.31
2023-11-29T21:07:30.998Z,80.05
2023-11-29T21:10:33.400Z,80.10
2023-11-29T21:13:35.717Z,79.81
2023-11-29T21:16:38.097Z,80.40
2023-11-29T21:19:41.209Z,80.79
2023-11-29T21:22:43.597Z,80.55
2023-11-29T21:25:46.045Z,80.45
2023-11-29T21:28:48.509Z,80.31
2023-11-29T21:31:52.272Z,80.13
2023-11-29T21:34:54.681Z,79.94
2023-11-29T21:37:57.311Z,80.35
2023-11-29T21:40:59.667Z,80.53
2023-11-29T21:44:02.170Z,80.86
2023-11-29T21:47:04.841Z,80.76
2023-11-29T21:50:08.900Z,81.15
2023-11-29T21:53:11.315Z,81.21
2023-11-29T21:56:13.669Z,80.92
2023-11-29T21:59:16.029Z,81.05
2023-11-29T22:02:18.462Z,81.09
2023-11-29T22:05:21.004Z,80.98
2023-11-29T22:08:23.351Z,81.30
2023-11-29T22:11:26.018Z,81.43
2023-11-29T22:14:28.585Z,81.47
2023-11-29T22:17:31.034Z,81.20
2023-11-29T22:20:33.450Z,81.47
2023-11-29T22:23:35.865Z,82.21
2023-11-29T22:26:47.462Z,82.00
2023-11-29T22:29:54.740Z,81.44
2023-11-29T22:32:57.195Z,82.03
2023-11-29T22:35:59.744Z,81.08
2023-11-29T22:39:04.313Z,81.59
2023-11-29T22:42:06.755Z,82.17
2023-11-29T22:45:09.658Z,82.26
2023-11-29T22:48:12.219Z,82.62
2023-11-29T22:51:19.029Z,82.60
2023-11-29T22:54:21.537Z,82.50
2023-11-29T22:57:24.007Z,82.83
2023-11-29T23:00:26.432Z,83.41
2023-11-29T23:03:28.838Z,82.94
2023-11-29T23:06:32.352Z,82.87
2023-11-29T23:09:35.338Z,83.08
2023-11-29T23:12:37.734Z,83.06
2023-11-29T23:15:40.145Z,83.05
2023-11-29T23:18:43.283Z,82.80
2023-11-29T23:21:45.819Z,82.89
2023-11-29T23:24:48.195Z,82.79
2023-11-29T23:27:50.541Z,82.14
2023-11-29T23:30:52.959Z,81.69
2023-11-29T23:33:55.393Z,82.15
2023-11-29T23:36:57.753Z,83.17
2023-11-29T23:40:00.185Z,83.67
2023-11-29T23:43:02.582Z,84.03
2023-11-29T23:46:05.183Z,84.51
2023-11-29T23:49:07.657Z,84.20
2023-11-29T23:52:10.070Z,84.44
2023-11-29T23:55:12.420Z,84.16
2023-11-29T23:58:14.774Z,84.18
